Time;durP1;ratioP1;P1;durP2;ratioP2;P2;SDS_P1;SDS_P2;PMS_P1;PMS_P2;Temp;Humidity;BMP_temperature;BMP_pressure;BME280_temperature;BME280_humidity;BME280_pressure;Samples;Min_cycle;Max_cycle;Signal;HPM_P1;HPM_P2
2022/09/18 00:00:24;;;;;;;0.13;0.13;;;8.70;99.90;;;;;;5086869;28;20503;-75
2022/09/18 00:02:51;;;;;;;0.10;0.10;;;8.80;99.90;;;;;;5088403;28;20056;-76
2022/09/18 00:05:17;;;;;;;0.10;0.10;;;8.70;99.90;;;;;;5089313;28;20036;-74
2022/09/18 00:07:44;;;;;;;0.10;0.10;;;8.80;99.90;;;;;;5090157;28;20020;-75
2022/09/18 00:10:13;;;;;;;0.10;0.10;;;8.80;99.90;;;;;;5090987;28;20044;-76
2022/09/18 00:13:08;;;;;;;0.10;0.10;;;8.70;99.90;;;;;;5095133;28;20029;-75
2022/09/18 00:15:35;;;;;;;0.08;0.08;;;8.70;99.90;;;;;;5074092;28;20025;-75
2022/09/18 00:18:04;;;;;;;0.10;0.10;;;8.70;99.90;;;;;;5093085;28;20028;-75
2022/09/18 00:20:32;;;;;;;0.10;0.10;;;8.70;99.90;;;;;;5091060;28;20024;-76
2022/09/18 00:22:58;;;;;;;0.10;0.10;;;8.70;99.90;;;;;;5092984;28;20039;-75
2022/09/18 00:25:24;;;;;;;6.57;6.13;;;8.60;99.90;;;;;;5087583;28;20027;-75
2022/09/18 00:27:49;;;;;;;0.10;0.10;;;8.60;99.90;;;;;;5070256;28;20024;-76
2022/09/18 00:30:21;;;;;;;0.10;0.10;;;8.60;99.90;;;;;;5066934;28;20033;-75
2022/09/18 00:32:56;;;;;;;0.10;0.10;;;8.60;99.90;;;;;;5052032;28;20043;-75
2022/09/18 00:35:24;;;;;;;0.10;0.10;;;8.60;99.90;;;;;;5090479;28;20495;-75
2022/09/18 00:37:50;;;;;;;0.10;0.10;;;8.60;99.90;;;;;;5074123;28;20036;-75
2022/09/18 00:40:16;;;;;;;0.10;0.10;;;8.50;99.90;;;;;;5087370;28;20020;-76
2022/09/18 00:42:45;;;;;;;0.10;0.10;;;8.60;99.90;;;;;;5088267;28;20036;-75
2022/09/18 00:45:11;;;;;;;0.10;0.10;;;8.60;99.90;;;;;;5086943;28;20019;-75
2022/09/18 00:47:42;;;;;;;0.10;0.10;;;8.60;99.90;;;;;;5087922;28;20021;-76
2022/09/18 00:50:27;;;;;;;0.10;0.10;;;8.60;99.90;;;;;;5086642;28;20029;-76
2022/09/18 00:53:02;;;;;;;0.10;0.10;;;8.60;99.90;;;;;;5089993;28;20036;-75
2022/09/18 00:55:33;;;;;;;0.10;0.10;;;8.60;99.90;;;;;;5088665;28;20051;-74
2022/09/18 00:58:24;;;;;;;0.10;0.10;;;8.40;99.90;;;;;;5090533;28;20035;-76
2022/09/18 01:00:49;;;;;;;0.10;0.10;;;8.60;99.90;;;;;;5071820;28;20173;-76
2022/09/18 01:03:28;;;;;;;0.10;0.10;;;8.60;99.90;;;;;;5090345;28;20020;-75
2022/09/18 01:06:05;;;;;;;0.05;0.05;;;8.50;99.90;;;;;;5092428;28;20096;-75
2022/09/18 01:08:53;;;;;;;0.10;0.10;;;8.50;99.90;;;;;;5091241;28;20040;-76
2022/09/18 01:11:35;;;;;;;0.10;0.10;;;8.50;99.90;;;;;;5089133;28;20021;-75
2022/09/18 01:14:31;;;;;;;0.10;0.10;;;8.60;99.90;;;;;;5089397;28;20071;-75
2022/09/18 01:17:31;;;;;;;0.10;0.10;;;8.50;99.90;;;;;;5089025;28;20029;-75
2022/09/18 01:20:21;;;;;;;0.10;0.10;;;8.50;99.90;;;;;;4996517;28;20021;-75
2022/09/18 01:23:15;;;;;;;0.10;0.10;;;8.50;99.90;;;;;;4993399;28;20356;-75
2022/09/18 01:26:15;;;;;;;0.10;0.10;;;7.80;99.90;;;;;;4989590;28;20042;-76
2022/09/18 01:28:51;;;;;;;0.10;0.10;;;8.60;99.90;;;;;;4898898;29;20049;-75
2022/09/18 01:31:33;;;;;;;0.10;0.10;;;8.50;99.90;;;;;;4896832;29;20067;-76
2022/09/18 01:34:13;;;;;;;10.23;9.60;;;8.50;99.90;;;;;;4898141;29;20044;-77
2022/09/18 01:36:44;;;;;;;0.17;0.17;;;8.60;99.90;;;;;;4895791;29;20033;-75
2022/09/18 01:39:23;;;;;;;0.10;0.10;;;8.60;99.90;;;;;;4895873;29;20037;-75
2022/09/18 01:41:50;;;;;;;0.10;0.10;;;8.60;99.90;;;;;;4896741;29;20032;-76
2022/09/18 01:44:21;;;;;;;0.10;0.10;;;8.60;99.90;;;;;;4897328;29;20059;-76
2022/09/18 01:47:12;;;;;;;2.55;2.45;;;8.60;99.90;;;;;;4898980;29;20034;-75
2022/09/18 01:49:44;;;;;;;0.10;0.10;;;8.60;99.90;;;;;;4864188;29;20065;-76
2022/09/18 01:52:32;;;;;;;0.10;0.10;;;8.50;99.90;;;;;;4867308;29;20352;-77
2022/09/18 01:55:05;;;;;;;0.10;0.10;;;8.50;99.90;;;;;;4853712;29;20037;-76
2022/09/18 01:57:45;;;;;;;0.10;0.10;;;8.50;99.90;;;;;;4892695;29;20680;-75
2022/09/18 02:00:30;;;;;;;0.10;0.10;;;8.50;99.90;;;;;;4921280;29;20154;-76
2022/09/18 02:03:12;;;;;;;0.10;0.10;;;8.50;99.90;;;;;;4949550;29;20051;-76
2022/09/18 02:05:43;;;;;;;0.17;0.17;;;8.60;99.90;;;;;;4986249;28;20057;-75
2022/09/18 02:08:14;;;;;;;0.10;0.10;;;8.70;99.90;;;;;;5049895;28;20118;-75
2022/09/18 02:10:47;;;;;;;0.10;0.10;;;8.70;99.90;;;;;;5044373;28;20305;-75
2022/09/18 02:13:18;;;;;;;0.10;0.10;;;8.70;99.90;;;;;;5044068;28;20031;-75
2022/09/18 02:15:47;;;;;;;0.10;0.10;;;5.90;99.90;;;;;;5046063;28;20021;-75
2022/09/18 02:18:21;;;;;;;0.10;0.10;;;8.70;99.90;;;;;;5047342;28;20033;-75
2022/09/18 02:20:47;;;;;;;0.10;0.10;;;8.70;99.90;;;;;;5055653;28;20054;-75
2022/09/18 02:23:14;;;;;;;0.15;0.15;;;8.70;99.90;;;;;;5091357;28;20029;-75
2022/09/18 02:25:56;;;;;;;0.10;0.10;;;8.70;99.90;;;;;;5091456;28;20024;-75
2022/09/18 02:28:24;;;;;;;0.10;0.10;;;8.80;99.90;;;;;;5093465;28;20028;-76
2022/09/18 02:30:50;;;;;;;0.10;0.10;;;8.80;99.90;;;;;;5091616;28;20016;-75
2022/09/18 02:33:35;;;;;;;0.10;0.10;;;8.70;99.90;;;;;;5090225;28;20052;-75
2022/09/18 02:36:16;;;;;;;0.10;0.10;;;8.70;99.90;;;;;;5090098;28;20056;-75
2022/09/18 02:39:07;;;;;;;0.10;0.10;;;8.80;99.90;;;;;;5090571;28;20024;-76
2022/09/18 02:42:18;;;;;;;0.10;0.10;;;8.80;99.90;;;;;;5074765;28;20021;-75
2022/09/18 02:45:20;;;;;;;0.10;0.10;;;8.70;99.90;;;;;;5090395;28;20035;-76
2022/09/18 02:48:23;;;;;;;0.10;0.10;;;8.70;99.90;;;;;;5088848;28;20045;-75
2022/09/18 02:51:15;;;;;;;0.10;0.10;;;8.80;99.90;;;;;;5090078;28;20021;-76
2022/09/18 02:54:07;;;;;;;0.10;0.10;;;8.80;99.90;;;;;;5093059;28;20016;-75
2022/09/18 02:56:48;;;;;;;0.20;0.20;;;8.70;99.90;;;;;;5090332;28;20106;-75
2022/09/18 02:59:38;;;;;;;0.20;0.20;;;8.80;99.90;;;;;;5090141;28;20025;-75
2022/09/18 03:02:07;;;;;;;0.10;0.10;;;8.80;99.90;;;;;;5091471;28;20028;-75
2022/09/18 03:04:33;;;;;;;0.10;0.10;;;8.80;99.90;;;;;;5093627;28;20233;-75
2022/09/18 03:06:59;;;;;;;0.10;0.10;;;8.80;99.90;;;;;;5090555;28;20063;-75
2022/09/18 03:09:33;;;;;;;0.10;0.10;;;8.80;99.90;;;;;;5089878;28;20112;-76
2022/09/18 03:12:01;;;;;;;0.10;0.10;;;8.90;99.90;;;;;;5084820;28;20028;-76
2022/09/18 03:14:27;;;;;;;0.15;0.15;;;8.90;99.90;;;;;;5062602;28;20024;-75
2022/09/18 03:16:53;;;;;;;0.17;0.17;;;8.90;99.90;;;;;;5075035;28;20025;-75
2022/09/18 03:19:19;;;;;;;0.10;0.10;;;8.90;99.90;;;;;;5081723;28;20032;-75
2022/09/18 03:21:45;;;;;;;3.40;1.65;;;8.90;99.90;;;;;;5083266;28;20029;-75
2022/09/18 03:24:11;;;;;;;0.10;0.10;;;8.90;99.90;;;;;;5085194;28;20032;-75
2022/09/18 03:26:40;;;;;;;0.10;0.10;;;8.90;99.90;;;;;;5083077;28;20414;-74
2022/09/18 03:29:32;;;;;;;0.10;0.10;;;9.00;99.90;;;;;;5082171;28;20041;-75
2022/09/18 03:31:58;;;;;;;0.10;0.10;;;9.00;99.90;;;;;;5088802;28;20021;-74
2022/09/18 03:34:23;;;;;;;0.10;0.10;;;9.00;99.90;;;;;;5084930;28;20024;-75
2022/09/18 03:36:49;;;;;;;0.17;0.17;;;9.00;99.90;;;;;;5078093;28;20031;-74
2022/09/18 03:39:16;;;;;;;0.10;0.10;;;9.00;99.90;;;;;;5076390;28;20021;-76
2022/09/18 03:41:41;;;;;;;0.10;0.10;;;9.00;99.90;;;;;;5083376;28;20017;-75
2022/09/18 03:44:07;;;;;;;0.10;0.10;;;9.10;99.90;;;;;;5083559;28;20054;-75
2022/09/18 03:46:33;;;;;;;0.20;0.20;;;9.10;99.90;;;;;;5085482;28;20652;-75
2022/09/18 03:49:02;;;;;;;0.20;0.20;;;9.10;99.90;;;;;;5083437;28;20084;-75
2022/09/18 03:51:30;;;;;;;0.10;0.10;;;9.10;99.90;;;;;;5088935;28;20026;-75
2022/09/18 03:53:57;;;;;;;0.10;0.10;;;11.00;99.90;;;;;;5092850;28;20040;-75
2022/09/18 03:56:32;;;;;;;0.10;0.10;;;9.10;99.90;;;;;;5093028;28;20028;-75
2022/09/18 03:58:58;;;;;;;0.20;0.20;;;9.10;99.90;;;;;;5092912;28;20048;-75
2022/09/18 04:01:23;;;;;;;0.10;0.10;;;9.10;99.90;;;;;;5092185;28;20028;-75
2022/09/18 04:04:09;;;;;;;0.15;0.15;;;9.20;99.90;;;;;;5092182;28;20035;-75
2022/09/18 04:06:39;;;;;;;0.10;0.10;;;9.10;99.90;;;;;;5092159;28;20020;-75
2022/09/18 04:09:15;;;;;;;0.10;0.10;;;9.10;99.90;;;;;;5093504;28;20114;-75
2022/09/18 04:11:41;;;;;;;0.10;0.10;;;9.10;99.90;;;;;;5092624;28;20068;-75
2022/09/18 04:14:07;;;;;;;0.20;0.20;;;9.10;99.90;;;;;;5093838;28;20057;-75
2022/09/18 04:16:33;;;;;;;0.10;0.10;;;9.20;99.90;;;;;;5093716;28;20025;-74
2022/09/18 04:19:29;;;;;;;0.20;0.20;;;9.10;99.90;;;;;;5077614;28;20032;-75
2022/09/18 04:21:55;;;;;;;0.15;0.15;;;9.20;99.90;;;;;;5064690;28;20070;-75
2022/09/18 04:24:22;;;;;;;0.20;0.20;;;9.10;99.90;;;;;;5063807;28;20459;-76
2022/09/18 04:27:03;;;;;;;0.20;0.20;;;9.10;99.90;;;;;;5090328;28;20007;-75
2022/09/18 04:29:31;;;;;;;0.10;0.10;;;9.10;99.90;;;;;;5061489;28;20040;-75
2022/09/18 04:32:13;;;;;;;0.20;0.20;;;9.10;99.90;;;;;;5066766;28;20213;-75
2022/09/18 04:34:39;;;;;;;0.13;0.13;;;9.10;99.90;;;;;;5073309;28;20056;-74
2022/09/18 04:37:05;;;;;;;0.10;0.10;;;9.10;99.90;;;;;;5087691;28;20088;-75
2022/09/18 04:39:31;;;;;;;0.10;0.10;;;9.10;99.90;;;;;;5089965;28;20027;-75
2022/09/18 04:41:58;;;;;;;0.17;0.17;;;9.10;99.90;;;;;;5088755;28;20667;-75
2022/09/18 04:44:24;;;;;;;0.10;0.10;;;9.10;99.90;;;;;;5071355;28;20039;-75
2022/09/18 04:46:50;;;;;;;0.10;0.10;;;9.10;99.90;;;;;;5089438;28;20029;-75
2022/09/18 04:49:15;;;;;;;0.10;0.10;;;9.80;99.90;;;;;;5089446;28;20030;-76
2022/09/18 04:51:43;;;;;;;0.10;0.10;;;9.20;99.90;;;;;;5088704;28;20025;-75
2022/09/18 04:54:26;;;;;;;0.10;0.10;;;9.20;99.90;;;;;;5089700;28;20039;-75
2022/09/18 04:57:00;;;;;;;0.10;0.10;;;9.10;99.90;;;;;;5069954;28;20863;-76
2022/09/18 04:59:26;;;;;;;0.10;0.10;;;9.10;99.90;;;;;;5070869;28;20027;-76
2022/09/18 05:01:52;;;;;;;0.15;0.15;;;9.10;99.90;;;;;;5071174;28;20029;-76
2022/09/18 05:04:26;;;;;;;0.10;0.10;;;9.10;99.90;;;;;;5076856;28;20052;-76
2022/09/18 05:06:52;;;;;;;0.10;0.10;;;9.10;99.90;;;;;;5090998;28;20013;-76
2022/09/18 05:09:17;;;;;;;0.20;0.20;;;9.10;99.90;;;;;;5072890;28;20040;-76
2022/09/18 05:11:43;;;;;;;0.10;0.10;;;9.20;99.90;;;;;;5092231;28;20043;-76
2022/09/18 05:14:09;;;;;;;0.10;0.10;;;9.10;99.90;;;;;;5094667;28;20032;-75
2022/09/18 05:16:39;;;;;;;0.10;0.10;;;9.20;99.90;;;;;;5069948;28;20058;-77
2022/09/18 05:19:04;;;;;;;0.10;0.10;;;9.20;99.90;;;;;;5094039;28;20012;-75
2022/09/18 05:21:41;;;;;;;0.10;0.10;;;9.20;99.90;;;;;;5093604;28;20031;-76
2022/09/18 05:24:07;;;;;;;0.10;0.10;;;9.20;99.90;;;;;;5092982;28;20055;-75
2022/09/18 05:26:44;;;;;;;0.10;0.10;;;9.10;99.90;;;;;;5092556;28;20313;-75
2022/09/18 05:29:33;;;;;;;0.10;0.10;;;9.10;99.90;;;;;;5092152;28;20415;-75
2022/09/18 05:32:02;;;;;;;0.20;0.20;;;9.10;99.90;;;;;;5073968;28;20013;-75
2022/09/18 05:34:30;;;;;;;0.20;0.20;;;9.10;99.90;;;;;;5086267;28;20058;-75
2022/09/18 05:36:58;;;;;;;0.10;0.10;;;9.10;99.90;;;;;;5090340;28;20028;-75
2022/09/18 05:39:31;;;;;;;0.17;0.17;;;7.50;99.90;;;;;;5092833;28;20102;-77
2022/09/18 05:41:57;;;;;;;0.10;0.10;;;9.20;99.90;;;;;;5081434;28;20440;-77
2022/09/18 05:44:23;;;;;;;0.10;0.10;;;8.00;99.90;;;;;;5049857;28;20402;-75
2022/09/18 05:46:55;;;;;;;0.20;0.20;;;8.90;99.90;;;;;;5091959;28;20085;-75
2022/09/18 05:49:33;;;;;;;0.10;0.10;;;9.30;99.90;;;;;;5087630;28;20059;-75
2022/09/18 05:51:59;;;;;;;0.10;0.10;;;9.30;99.90;;;;;;5092226;28;20008;-75
2022/09/18 05:54:56;;;;;;;0.20;0.20;;;9.30;99.90;;;;;;5089356;28;20016;-74
2022/09/18 05:57:22;;;;;;;0.10;0.10;;;9.40;99.90;;;;;;5047589;28;20044;-76
2022/09/18 05:59:47;;;;;;;0.10;0.10;;;9.40;99.90;;;;;;5050884;28;20033;-75
2022/09/18 06:02:13;;;;;;;0.20;0.20;;;9.40;99.90;;;;;;5053358;28;20037;-75
2022/09/18 06:04:40;;;;;;;0.10;0.10;;;9.40;99.90;;;;;;5050594;28;20037;-76
2022/09/18 06:07:06;;;;;;;0.10;0.10;;;9.50;99.90;;;;;;5050282;28;20068;-75
2022/09/18 06:09:32;;;;;;;0.20;0.20;;;9.60;99.90;;;;;;5049100;28;20049;-75
2022/09/18 06:11:58;;;;;;;0.20;0.20;;;9.60;99.90;;;;;;5050400;28;20024;-75
2022/09/18 06:14:26;;;;;;;0.10;0.10;;;9.60;99.90;;;;;;5049879;28;20117;-74
2022/09/18 06:16:52;;;;;;;0.20;0.20;;;9.70;99.90;;;;;;5054872;28;20039;-75
2022/09/18 06:19:18;;;;;;;0.40;0.40;;;9.80;99.90;;;;;;5036831;28;20030;-75
2022/09/18 06:21:44;;;;;;;0.10;0.10;;;9.90;99.90;;;;;;5048949;28;20073;-75
2022/09/18 06:24:17;;;;;;;0.10;0.10;;;9.90;99.90;;;;;;5054562;28;20064;-76
2022/09/18 06:26:42;;;;;;;0.10;0.10;;;9.90;99.90;;;;;;5029336;28;20025;-76
2022/09/18 06:29:08;;;;;;;0.10;0.10;;;10.10;99.90;;;;;;5066014;28;20037;-78
2022/09/18 06:31:36;;;;;;;0.20;0.20;;;10.30;99.90;;;;;;5081011;28;20037;-77
2022/09/18 06:34:27;;;;;;;0.20;0.20;;;8.40;99.90;;;;;;5043510;28;20048;-76
2022/09/18 06:37:21;;;;;;;0.10;0.10;;;10.80;99.90;;;;;;5078799;28;20050;-76
2022/09/18 06:39:56;;;;;;;0.10;0.10;;;10.90;99.90;;;;;;5079654;28;20028;-76
2022/09/18 06:42:22;;;;;;;0.20;0.20;;;11.10;99.90;;;;;;5067384;28;20367;-76
2022/09/18 06:44:48;;;;;;;0.10;0.10;;;11.20;99.90;;;;;;5077292;28;20059;-77
2022/09/18 06:47:15;;;;;;;0.10;0.10;;;11.30;99.90;;;;;;5067743;28;20064;-77
2022/09/18 06:49:41;;;;;;;0.10;0.10;;;11.30;99.90;;;;;;5078576;28;20063;-75
2022/09/18 06:52:15;;;;;;;0.10;0.10;;;11.30;99.90;;;;;;5073395;28;20142;-76
2022/09/18 06:54:41;;;;;;;0.10;0.10;;;11.20;99.90;;;;;;5077631;28;20032;-75
2022/09/18 06:57:08;;;;;;;0.10;0.10;;;11.20;99.90;;;;;;5074063;28;20567;-76
2022/09/18 06:59:59;;;;;;;0.10;0.10;;;11.10;99.90;;;;;;5081873;28;20081;-75
2022/09/18 07:02:25;;;;;;;0.10;0.10;;;11.10;99.90;;;;;;5067342;28;20046;-75
2022/09/18 07:05:03;;;;;;;0.10;0.10;;;11.10;99.90;;;;;;5086182;28;20060;-75
2022/09/18 07:07:37;;;;;;;0.10;0.10;;;11.10;99.90;;;;;;5093403;28;20051;-74
2022/09/18 07:10:03;;;;;;;0.10;0.10;;;11.00;99.90;;;;;;5017235;22;1266407;-76
2022/09/18 07:12:31;;;;;;;0.10;0.10;;;10.90;99.90;;;;;;5031120;28;20043;-75
2022/09/18 07:14:57;;;;;;;0.10;0.10;;;10.70;99.90;;;;;;5047613;28;20725;-75
2022/09/18 07:17:23;;;;;;;0.20;0.20;;;10.60;99.90;;;;;;5051503;28;20040;-76
2022/09/18 07:19:49;;;;;;;0.20;0.20;;;10.60;99.90;;;;;;5029218;28;20491;-77
2022/09/18 07:22:20;;;;;;;0.10;0.10;;;10.70;99.90;;;;;;5053574;28;20024;-75
2022/09/18 07:24:52;;;;;;;0.20;0.20;;;10.80;99.90;;;;;;5067610;28;20044;-75
2022/09/18 07:27:30;;;;;;;0.10;0.10;;;11.00;99.90;;;;;;5063404;28;20021;-76
2022/09/18 07:29:57;;;;;;;0.10;0.10;;;10.90;99.90;;;;;;5060165;28;20025;-75
2022/09/18 07:32:24;;;;;;;0.10;0.10;;;11.10;99.90;;;;;;5064610;28;20025;-75
2022/09/18 07:35:15;;;;;;;0.13;0.13;;;11.30;99.90;;;;;;5062128;28;20025;-76
2022/09/18 07:37:41;;;;;;;0.10;0.10;;;11.50;99.90;;;;;;5046290;28;20685;-78
2022/09/18 07:40:10;;;;;;;0.10;0.10;;;11.70;99.90;;;;;;5036595;28;20521;-75
2022/09/18 07:42:41;;;;;;;0.10;0.10;;;11.70;99.90;;;;;;5064026;28;20029;-75
2022/09/18 07:45:18;;;;;;;0.10;0.10;;;12.00;99.90;;;;;;5017946;28;20135;-77
2022/09/18 07:47:46;;;;;;;0.10;0.10;;;12.20;99.90;;;;;;5026157;28;20359;-77
2022/09/18 07:50:14;;;;;;;0.10;0.10;;;12.40;99.90;;;;;;5040254;28;20091;-81
2022/09/18 07:52:50;;;;;;;0.10;0.10;;;12.60;99.90;;;;;;5040800;28;20009;-80
2022/09/18 07:55:19;;;;;;;0.10;0.10;;;13.00;99.90;;;;;;5042383;28;20029;-78
2022/09/18 07:57:47;;;;;;;0.10;0.10;;;13.30;99.90;;;;;;5045470;28;20099;-83
2022/09/18 08:00:14;;;;;;;0.10;0.10;;;13.50;99.90;;;;;;5026279;28;20029;-81
2022/09/18 08:02:40;;;;;;;0.10;0.10;;;13.60;99.90;;;;;;5045295;28;20234;-81
2022/09/18 08:05:07;;;;;;;0.10;0.10;;;14.10;99.90;;;;;;5044311;28;20622;-77
2022/09/18 08:07:33;;;;;;;0.10;0.10;;;13.50;99.90;;;;;;5042992;28;20025;-81
2022/09/18 08:09:58;;;;;;;0.10;0.10;;;13.40;99.90;;;;;;5043194;28;20124;-79
2022/09/18 08:12:24;;;;;;;0.10;0.10;;;13.20;99.90;;;;;;5051084;28;20561;-85
2022/09/18 08:14:50;;;;;;;0.10;0.10;;;12.90;99.90;;;;;;5052149;28;20143;-81
2022/09/18 08:17:27;;;;;;;0.10;0.10;;;12.80;99.90;;;;;;5058095;28;20038;-84
2022/09/18 08:19:52;;;;;;;0.10;0.10;;;12.80;99.90;;;;;;5055192;28;20052;-77
2022/09/18 08:22:18;;;;;;;0.10;0.10;;;12.60;99.90;;;;;;5050867;28;20079;-82
2022/09/18 08:24:44;;;;;;;0.10;0.10;;;12.90;99.90;;;;;;5027211;28;20033;-85
2022/09/18 08:27:10;;;;;;;0.10;0.10;;;13.10;99.90;;;;;;5041121;28;20029;-83
2022/09/18 08:29:35;;;;;;;0.10;0.10;;;13.30;99.90;;;;;;5039584;28;20025;-81
2022/09/18 08:32:01;;;;;;;0.10;0.10;;;13.50;99.90;;;;;;5039283;28;20017;-77
2022/09/18 08:34:27;;;;;;;0.17;0.17;;;13.40;99.90;;;;;;5040504;28;20025;-78
2022/09/18 08:36:54;;;;;;;0.10;0.10;;;13.30;99.90;;;;;;5040419;28;20529;-78
2022/09/18 08:39:19;;;;;;;0.10;0.10;;;12.90;99.90;;;;;;5039193;28;20029;-78
2022/09/18 08:42:15;;;;;;;0.10;0.10;;;12.90;99.90;;;;;;5039544;28;20087;-88
2022/09/18 08:44:59;;;;;;;0.10;0.10;;;13.20;99.90;;;;;;5039056;28;20514;-83
2022/09/18 08:47:33;;;;;;;0.10;0.10;;;13.70;99.90;;;;;;5023987;28;20096;-79
2022/09/18 08:50:23;;;;;;;0.10;0.10;;;13.30;99.90;;;;;;5044275;28;20021;-86
2022/09/18 08:53:00;;;;;;;0.10;0.10;;;13.70;99.90;;;;;;5045015;28;20071;-86
2022/09/18 08:55:40;;;;;;;0.10;0.10;;;12.60;99.70;;;;;;5044811;28;20017;-87
2022/09/18 08:58:46;;;;;;;0.10;0.10;;;14.30;99.80;;;;;;5045427;28;20025;-85
2022/09/18 09:01:16;;;;;;;0.10;0.10;;;14.40;99.40;;;;;;4960429;28;20039;-82
2022/09/18 09:03:53;;;;;;;0.10;0.10;;;14.30;98.70;;;;;;4961161;28;20392;-80
2022/09/18 09:06:32;;;;;;;0.13;0.13;;;14.60;98.40;;;;;;4960234;28;20035;-81
2022/09/18 09:09:21;;;;;;;0.10;0.10;;;14.60;99.70;;;;;;4960921;28;20063;-82
2022/09/18 09:12:04;;;;;;;0.10;0.10;;;14.80;98.40;;;;;;4961003;28;20093;-82
2022/09/18 09:14:35;;;;;;;0.10;0.10;;;14.80;98.90;;;;;;4964055;28;20105;-89
2022/09/18 09:17:09;;;;;;;0.10;0.10;;;15.00;97.10;;;;;;4962080;28;20035;-81
2022/09/18 09:19:49;;;;;;;0.10;0.10;;;14.90;97.20;;;;;;4945488;28;20039;-81
2022/09/18 09:22:42;;;;;;;0.10;0.10;;;14.80;96.90;;;;;;4960392;28;20042;-78
2022/09/18 09:25:28;;;;;;;0.10;0.10;;;14.50;97.60;;;;;;4959112;28;20185;-78
2022/09/18 09:28:15;;;;;;;0.10;0.10;;;14.50;97.20;;;;;;4959824;28;20486;-78
2022/09/18 09:30:45;;;;;;;0.10;0.10;;;14.60;97.10;;;;;;4960411;28;20070;-87
2022/09/18 09:33:13;;;;;;;0.10;0.10;;;14.90;97.50;;;;;;5041543;28;20025;-78
2022/09/18 09:35:47;;;;;;;0.10;0.10;;;15.70;97.10;;;;;;5042713;28;20039;-82
2022/09/18 09:38:34;;;;;;;0.10;0.10;;;14.70;96.80;;;;;;5042468;28;20037;-78
2022/09/18 09:41:32;;;;;;;0.10;0.10;;;15.00;97.40;;;;;;5043880;28;20021;-87
2022/09/18 09:44:22;;;;;;;0.10;0.10;;;15.00;98.00;;;;;;5024494;28;20511;-87
2022/09/18 09:47:04;;;;;;;0.10;0.10;;;17.10;98.90;;;;;;5043166;28;20036;-89
2022/09/18 09:49:38;;;;;;;0.10;0.10;;;15.50;96.30;;;;;;5043899;28;20368;-86
2022/09/18 09:52:23;;;;;;;0.10;0.10;;;15.80;96.30;;;;;;5044584;28;20025;-91
2022/09/18 09:55:07;;;;;;;0.10;0.10;;;17.80;96.20;;;;;;5047085;28;20021;-83
2022/09/18 09:57:39;;;;;;;;;;;19.80;94.70;;;;;;5046628;28;20392;-88
2022/09/18 10:00:13;;;;;;;0.10;0.10;;;15.70;93.10;;;;;;5046792;28;19904;-76
2022/09/18 10:03:01;;;;;;;0.10;0.10;;;15.90;95.20;;;;;;5028954;28;20537;-86
2022/09/18 10:05:37;;;;;;;0.10;0.10;;;15.90;93.60;;;;;;5059529;28;20067;-88
2022/09/18 10:08:10;;;;;;;0.10;0.10;;;15.80;94.00;;;;;;5061964;28;20187;-85
2022/09/18 10:10:57;;;;;;;0.10;0.10;;;16.00;92.80;;;;;;5039171;28;20033;-93
2022/09/18 10:13:38;;;;;;;0.10;0.10;;;16.20;91.90;;;;;;5046970;28;20346;-86
2022/09/18 10:16:11;;;;;;;0.10;0.10;;;16.30;92.50;;;;;;5050330;28;20021;-92
2022/09/18 10:18:42;;;;;;;0.10;0.10;;;16.40;92.20;;;;;;5046070;28;20028;-94
2022/09/18 10:21:20;;;;;;;0.10;0.10;;;16.20;91.80;;;;;;5044746;28;20021;-75
2022/09/18 10:24:08;;;;;;;0.10;0.10;;;16.30;91.10;;;;;;5039951;28;20338;-76
2022/09/18 10:26:53;;;;;;;0.10;0.10;;;16.20;90.90;;;;;;5040974;28;20029;-90
2022/09/18 10:29:19;;;;;;;0.10;0.10;;;16.40;93.80;;;;;;5042020;28;20021;-91
2022/09/18 10:31:56;;;;;;;0.10;0.10;;;16.70;92.00;;;;;;5042435;28;20013;-83
2022/09/18 10:34:34;;;;;;;0.10;0.10;;;16.90;89.60;;;;;;5041750;28;20036;-85
2022/09/18 10:37:00;;;;;;;0.10;0.10;;;16.90;91.30;;;;;;5042287;28;20099;-80
2022/09/18 10:39:29;;;;;;;0.10;0.10;;;17.20;91.40;;;;;;5041151;28;20025;-78
2022/09/18 10:42:04;;;;;;;0.10;0.10;;;17.20;89.10;;;;;;5041528;28;20052;-87
2022/09/18 10:44:34;;;;;;;0.10;0.10;;;17.30;88.20;;;;;;5040602;28;20029;-85
2022/09/18 10:47:16;;;;;;;0.10;0.10;;;17.60;88.90;;;;;;5041941;28;20020;-88
2022/09/18 10:50:00;;;;;;;0.10;0.10;;;17.50;85.20;;;;;;5042386;28;20095;-86
2022/09/18 10:52:43;;;;;;;0.10;0.10;;;14.80;83.80;;;;;;5041163;28;20013;-92
2022/09/18 10:55:14;;;;;;;0.10;0.10;;;17.60;83.70;;;;;;5041492;28;20025;-90
2022/09/18 10:57:43;;;;;;;0.10;0.10;;;17.70;84.20;;;;;;5042342;28;20032;-91
2022/09/18 11:00:18;;;;;;;0.10;0.10;;;17.80;82.80;;;;;;5040934;28;20132;-77
2022/09/18 11:02:52;;;;;;;0.10;0.10;;;18.10;82.00;;;;;;5041314;28;20270;-88
2022/09/18 11:05:30;;;;;;;0.10;0.10;;;18.40;85.00;;;;;;5027788;28;20033;-84
2022/09/18 11:07:59;;;;;;;0.10;0.10;;;18.80;83.10;;;;;;5043606;28;20364;-89
2022/09/18 11:10:28;;;;;;;0.10;0.10;;;18.70;79.80;;;;;;5043928;28;20033;-87
2022/09/18 11:13:00;;;;;;;0.00;0.00;;;18.90;77.20;;;;;;5045045;28;20125;-86
2022/09/18 11:15:34;;;;;;;0.10;0.10;;;18.80;78.10;;;;;;5029735;28;20090;-85
2022/09/18 11:18:05;;;;;;;0.10;0.10;;;18.90;77.10;;;;;;5056701;28;20013;-90
2022/09/18 11:20:39;;;;;;;0.10;0.10;;;19.00;77.50;;;;;;5033503;28;20345;-77
2022/09/18 11:23:26;;;;;;;0.10;0.10;;;19.00;76.20;;;;;;5044409;28;20025;-77
2022/09/18 11:26:19;;;;;;;0.10;0.10;;;19.10;73.20;;;;;;5032900;28;20021;-86
2022/09/18 11:29:16;;;;;;;0.10;0.10;;;19.10;72.70;;;;;;5047906;28;20486;-86
2022/09/18 11:32:05;;;;;;;0.10;0.10;;;19.50;73.30;;;;;;5060711;28;20063;-87
2022/09/18 11:34:37;;;;;;;0.10;0.10;;;19.20;72.80;;;;;;5062347;28;20059;-79
2022/09/18 11:37:11;;;;;;;0.08;0.08;;;19.40;70.80;;;;;;5063976;28;20032;-91
2022/09/18 11:39:42;;;;;;;0.10;0.10;;;19.50;71.90;;;;;;5065369;28;20009;-87
2022/09/18 11:42:16;;;;;;;0.10;0.10;;;19.70;71.40;;;;;;5065834;28;20044;-89
2022/09/18 11:44:42;;;;;;;0.10;0.10;;;19.70;69.70;;;;;;5063861;28;20217;-77
2022/09/18 11:47:33;;;;;;;0.10;0.10;;;19.70;70.40;;;;;;5028840;28;20616;-84
2022/09/18 11:50:17;;;;;;;0.10;0.10;;;19.80;70.20;;;;;;5044836;28;20017;-82
2022/09/18 11:52:46;;;;;;;0.10;0.10;;;20.00;67.30;;;;;;5042085;28;20104;-87
2022/09/18 11:55:30;;;;;;;0.10;0.10;;;20.10;67.00;;;;;;5042355;28;20025;-83
2022/09/18 11:57:58;;;;;;;0.10;0.10;;;20.30;66.30;;;;;;5043821;28;20021;-80
2022/09/18 12:00:29;;;;;;;0.10;0.10;;;20.50;68.10;;;;;;5048595;28;20035;-80
2022/09/18 12:03:03;;;;;;;0.10;0.10;;;20.40;64.60;;;;;;5050484;28;20227;-78
2022/09/18 12:05:38;;;;;;;0.10;0.10;;;20.40;60.60;;;;;;5045909;28;20025;-81
2022/09/18 12:08:21;;;;;;;0.10;0.10;;;20.50;59.20;;;;;;5041546;28;20075;-79
2022/09/18 12:11:15;;;;;;;0.10;0.10;;;21.00;58.10;;;;;;5040009;28;20033;-78
2022/09/18 12:13:41;;;;;;;0.10;0.10;;;;;;;;;;5040055;28;20017;-86
2022/09/18 12:16:21;;;;;;;0.10;0.10;;;20.00;55.70;;;;;;5039818;28;20017;-81
2022/09/18 12:19:00;;;;;;;0.10;0.10;;;19.90;57.50;;;;;;5040383;28;20018;-82
2022/09/18 12:21:44;;;;;;;0.10;0.10;;;20.10;57.30;;;;;;5020479;28;20329;-76
2022/09/18 12:24:17;;;;;;;0.10;0.10;;;19.90;55.80;;;;;;5041014;28;20031;-76
2022/09/18 12:26:53;;;;;;;0.10;0.10;;;20.40;56.90;;;;;;5041650;28;20478;-88
2022/09/18 12:29:37;;;;;;;0.03;0.03;;;19.90;56.50;;;;;;5042251;28;20029;-90
2022/09/18 12:32:18;;;;;;;0.10;0.10;;;20.10;55.00;;;;;;5041812;28;20431;-84
2022/09/18 12:35:03;;;;;;;0.10;0.10;;;19.70;55.20;;;;;;5023420;28;20095;-86
2022/09/18 12:37:47;;;;;;;0.10;0.10;;;20.20;55.40;;;;;;5041562;28;20032;-88
2022/09/18 12:40:34;;;;;;;0.10;0.10;;;20.40;53.90;;;;;;5042343;28;20079;-90
2022/09/18 12:43:10;;;;;;;0.10;0.10;;;20.30;54.70;;;;;;5041947;28;20040;-81
2022/09/18 12:45:54;;;;;;;0.10;0.10;;;20.40;55.90;;;;;;5042850;28;20033;-89
2022/09/18 12:48:31;;;;;;;;;;;20.40;54.50;;;;;;5041062;28;20044;-90
2022/09/18 12:51:02;;;;;;;0.10;0.10;;;20.50;53.80;;;;;;5041707;28;20036;-86
2022/09/18 12:53:47;;;;;;;0.03;0.03;;;20.40;54.50;;;;;;5042382;28;20028;-92
2022/09/18 12:56:22;;;;;;;0.10;0.10;;;21.00;52.00;;;;;;5041927;28;20013;-84
2022/09/18 12:59:09;;;;;;;0.10;0.10;;;21.00;52.90;;;;;;5041102;28;20274;-93
2022/09/18 13:01:55;;;;;;;0.10;0.10;;;21.00;51.80;;;;;;5042012;28;20032;-92
2022/09/18 13:04:36;;;;;;;0.10;0.10;;;21.20;52.50;;;;;;5041987;28;20021;-93
2022/09/18 13:07:12;;;;;;;0.10;0.10;;;21.30;50.80;;;;;;5043521;28;20028;-91
2022/09/18 13:09:54;;;;;;;0.00;0.00;;;21.50;50.60;;;;;;5041006;28;20052;-82
2022/09/18 13:12:30;;;;;;;0.10;0.10;;;21.90;51.20;;;;;;5020801;28;20025;-85
2022/09/18 13:15:02;;;;;;;0.10;0.10;;;21.80;48.90;;;;;;5039544;28;20398;-82
2022/09/18 13:17:34;;;;;;;0.05;0.05;;;21.90;49.10;;;;;;5039307;28;20404;-79
2022/09/18 13:20:25;;;;;;;0.10;0.10;;;22.30;51.10;;;;;;5043188;28;20025;-82
2022/09/18 13:22:53;;;;;;;0.10;0.10;;;22.70;48.40;;;;;;5044515;28;20329;-88
2022/09/18 13:25:36;;;;;;;0.10;0.10;;;22.90;47.00;;;;;;5044558;28;20025;-82
2022/09/18 13:28:03;;;;;;;;;;;23.00;48.10;;;;;;5044579;28;20017;-80
2022/09/18 13:30:30;;;;;;;0.10;0.10;;;22.90;47.50;;;;;;5023284;28;20547;-88